Time;durP1;ratioP1;P1;durP2;ratioP2;P2;SDS_P1;SDS_P2;PMS_P1;PMS_P2;Temp;Humidity;BMP_temperature;BMP_pressure;BME280_temperature;BME280_humidity;BME280_pressure;Samples;Min_cycle;Max_cycle;Signal;HPM_P1;HPM_P2
2022/06/02 00:00:16;;;;;;;4.30;3.90;;;8.60;99.90;;;;;;5050260;28;20233;-50
2022/06/02 00:03:03;;;;;;;4.60;4.20;;;8.50;99.90;;;;;;5049287;28;20274;-51
2022/06/02 00:05:51;;;;;;;4.47;4.03;;;8.50;99.90;;;;;;5035554;28;20263;-51
2022/06/02 00:08:26;;;;;;;4.70;4.20;;;8.50;99.90;;;;;;5048971;28;20213;-51
2022/06/02 00:11:11;;;;;;;5.43;4.40;;;8.50;99.90;;;;;;5048962;28;20201;-51
2022/06/02 00:13:43;;;;;;;4.00;3.70;;;8.40;99.90;;;;;;5048798;28;20283;-51
2022/06/02 00:16:16;;;;;;;4.37;3.97;;;8.40;99.90;;;;;;5046993;28;20219;-52
2022/06/02 00:18:50;;;;;;;6.17;4.63;;;8.30;99.90;;;;;;5043420;28;20845;-51
2022/06/02 00:21:27;;;;;;;4.90;4.50;;;8.30;99.90;;;;;;5048612;28;20279;-51
2022/06/02 00:24:02;;;;;;;4.60;4.20;;;8.30;99.90;;;;;;5048244;28;20263;-51
2022/06/02 00:26:44;;;;;;;4.67;4.27;;;8.30;99.90;;;;;;5048743;28;20288;-51
2022/06/02 00:29:24;;;;;;;6.50;4.80;;;8.30;99.90;;;;;;5049276;28;20216;-53
2022/06/02 00:32:01;;;;;;;4.80;4.30;;;8.30;99.90;;;;;;5056077;28;20269;-50
2022/06/02 00:34:37;;;;;;;5.33;4.83;;;8.20;99.90;;;;;;5057213;28;20229;-50
2022/06/02 00:37:17;;;;;;;4.67;4.27;;;8.20;99.90;;;;;;5052343;28;20591;-51
2022/06/02 00:39:47;;;;;;;4.77;4.17;;;8.20;99.90;;;;;;5036431;28;20231;-51
2022/06/02 00:42:37;;;;;;;4.40;4.10;;;8.10;99.90;;;;;;5049033;28;20304;-51
2022/06/02 00:45:08;;;;;;;4.90;4.50;;;8.10;99.90;;;;;;5038123;28;20206;-51
2022/06/02 00:47:50;;;;;;;4.37;4.07;;;8.00;99.90;;;;;;5048356;28;20674;-51
2022/06/02 00:50:35;;;;;;;6.73;4.83;;;8.00;99.90;;;;;;5048164;28;20237;-51
2022/06/02 00:53:11;;;;;;;5.63;4.97;;;8.00;99.90;;;;;;5047567;28;20232;-51
2022/06/02 00:58:40;;;;;;;6.23;4.93;;;7.90;99.90;;;;;;5048518;28;20267;-51
2022/06/02 01:01:13;;;;;;;4.83;4.37;;;7.90;99.90;;;;;;5037253;28;20206;-51
2022/06/02 01:03:46;;;;;;;5.03;4.53;;;7.90;99.90;;;;;;5051596;28;20721;-51
2022/06/02 01:06:27;;;;;;;5.30;4.80;;;7.90;99.90;;;;;;5050903;28;20209;-52
2022/06/02 01:09:40;;;;;;;4.93;4.53;;;7.80;99.90;;;;;;5052204;28;20206;-51
2022/06/02 01:12:30;;;;;;;7.93;5.60;;;7.80;99.90;;;;;;4987587;28;20211;-51
2022/06/02 01:15:07;;;;;;;5.67;5.17;;;7.80;99.90;;;;;;5051589;28;20220;-51
2022/06/02 01:17:47;;;;;;;5.73;5.23;;;7.80;99.90;;;;;;5051537;28;20338;-51
2022/06/02 01:20:36;;;;;;;7.03;4.80;;;7.80;99.90;;;;;;5051812;28;20316;-51
2022/06/02 01:23:43;;;;;;;5.50;5.00;;;7.70;99.90;;;;;;5050856;28;20282;-51
2022/06/02 01:26:36;;;;;;;6.00;5.40;;;7.70;99.90;;;;;;5051667;28;20241;-52
2022/06/02 01:29:23;;;;;;;6.57;5.13;;;7.60;99.90;;;;;;5051627;28;20205;-51
2022/06/02 01:31:57;;;;;;;5.80;5.30;;;7.60;99.90;;;;;;5051296;28;20678;-51
2022/06/02 01:34:38;;;;;;;6.83;6.13;;;7.60;99.90;;;;;;5050492;28;20712;-51
2022/06/02 01:37:18;;;;;;;6.03;5.43;;;7.60;99.90;;;;;;5051190;28;20212;-51
2022/06/02 01:40:03;;;;;;;6.30;5.40;;;7.60;99.90;;;;;;5051233;28;20575;-51
2022/06/02 01:42:42;;;;;;;6.63;5.50;;;7.70;99.90;;;;;;5051217;28;20228;-51
2022/06/02 01:45:19;;;;;;;5.83;5.33;;;7.60;99.90;;;;;;5050892;28;20207;-51
2022/06/02 01:47:59;;;;;;;5.60;5.10;;;7.60;99.90;;;;;;5051381;28;20267;-50
2022/06/02 01:50:35;;;;;;;6.87;6.17;;;7.60;99.90;;;;;;5051161;28;20454;-51
2022/06/02 01:53:12;;;;;;;8.07;5.23;;;7.60;99.90;;;;;;5037943;28;20233;-51
2022/06/02 01:55:59;;;;;;;6.23;5.70;;;7.60;99.90;;;;;;5039567;28;20206;-51
2022/06/02 01:58:46;;;;;;;6.20;5.70;;;7.60;99.90;;;;;;5050991;28;20270;-50
2022/06/02 02:01:25;;;;;;;6.03;5.43;;;7.50;99.90;;;;;;5050558;28;20255;-51
2022/06/02 02:04:04;;;;;;;6.13;5.53;;;7.50;99.90;;;;;;5050887;28;20251;-51
2022/06/02 02:06:41;;;;;;;6.30;5.70;;;7.50;99.90;;;;;;5050885;28;20211;-51
2022/06/02 02:09:22;;;;;;;6.20;5.57;;;7.40;99.90;;;;;;5051242;28;20208;-51
2022/06/02 02:11:52;;;;;;;6.83;5.50;;;7.40;99.90;;;;;;5050333;28;20263;-51
2022/06/02 02:14:50;;;;;;;6.80;6.20;;;7.40;99.90;;;;;;5050223;28;20237;-50
2022/06/02 02:17:39;;;;;;;5.97;5.47;;;7.40;99.90;;;;;;5035453;28;20205;-51
2022/06/02 02:20:21;;;;;;;6.37;5.37;;;7.40;99.90;;;;;;5036751;28;20763;-51
2022/06/02 02:23:00;;;;;;;6.23;5.63;;;7.30;99.90;;;;;;5049668;28;20212;-50
2022/06/02 02:25:33;;;;;;;6.03;5.47;;;7.30;99.90;;;;;;5050992;28;20662;-51
2022/06/02 02:28:12;;;;;;;5.93;5.40;;;7.30;99.90;;;;;;5050471;28;20646;-51
2022/06/02 02:30:55;;;;;;;5.87;5.27;;;7.30;99.90;;;;;;5049885;28;20204;-50
2022/06/02 02:33:32;;;;;;;5.93;5.10;;;7.30;99.90;;;;;;5049926;28;20791;-51
2022/06/02 02:36:10;;;;;;;5.80;5.20;;;7.20;99.90;;;;;;5037147;28;20243;-51
2022/06/02 02:38:49;;;;;;;6.37;5.20;;;7.20;99.90;;;;;;5050364;28;20267;-51
2022/06/02 02:41:24;;;;;;;6.47;5.87;;;7.20;99.90;;;;;;5049969;28;20200;-51
2022/06/02 02:43:58;;;;;;;8.57;5.93;;;7.10;99.90;;;;;;5050216;28;20279;-51
2022/06/02 02:46:35;;;;;;;8.40;5.90;;;7.10;99.90;;;;;;5048739;28;20241;-51
2022/06/02 02:49:13;;;;;;;6.20;5.60;;;7.00;99.90;;;;;;5049448;28;20215;-51
2022/06/02 02:51:50;;;;;;;7.03;6.43;;;7.00;99.90;;;;;;5050719;28;20227;-51
2022/06/02 02:54:26;;;;;;;6.97;6.27;;;6.90;99.90;;;;;;5052519;28;20276;-51
2022/06/02 02:57:04;;;;;;;7.33;6.63;;;6.90;99.90;;;;;;5050184;28;20363;-51
2022/06/02 02:59:40;;;;;;;6.90;6.20;;;6.80;99.90;;;;;;5049691;28;20237;-51
2022/06/02 03:02:16;;;;;;;6.90;6.30;;;6.80;99.90;;;;;;5048922;28;20244;-52
2022/06/02 03:04:55;;;;;;;7.10;6.27;;;6.80;99.90;;;;;;5048462;28;20235;-51
2022/06/02 03:07:24;;;;;;;6.80;6.10;;;6.90;99.90;;;;;;5049942;28;20545;-51
2022/06/02 03:10:02;;;;;;;6.10;5.50;;;6.90;99.90;;;;;;5049688;28;20291;-51
2022/06/02 03:12:50;;;;;;;6.80;6.10;;;6.90;99.90;;;;;;5049701;28;20201;-51
2022/06/02 03:15:24;;;;;;;7.20;6.50;;;6.90;99.90;;;;;;5046742;28;20207;-51
2022/06/02 03:18:19;;;;;;;8.63;7.13;;;6.90;99.90;;;;;;5049427;28;20205;-51
2022/06/02 03:20:57;;;;;;;7.80;7.00;;;6.80;99.90;;;;;;5049187;28;20774;-52
2022/06/02 03:24:06;;;;;;;8.30;7.50;;;6.80;99.90;;;;;;5048444;28;20311;-52
2022/06/02 03:26:50;;;;;;;7.57;6.87;;;6.80;99.90;;;;;;5038489;28;20295;-51
2022/06/02 03:29:28;;;;;;;7.77;6.90;;;6.80;99.90;;;;;;5037383;28;20205;-50
2022/06/02 03:32:04;;;;;;;7.97;7.13;;;6.80;99.90;;;;;;5045940;28;20272;-50
2022/06/02 03:34:38;;;;;;;8.50;6.90;;;6.90;99.90;;;;;;5049582;28;20262;-51
2022/06/02 03:37:21;;;;;;;7.83;6.80;;;6.90;99.90;;;;;;5049170;28;20248;-50
2022/06/02 03:40:03;;;;;;;9.03;8.03;;;6.90;99.90;;;;;;5049365;28;20265;-52
2022/06/02 03:42:43;;;;;;;8.63;7.83;;;6.80;99.90;;;;;;5048832;28;20210;-52
2022/06/02 03:45:38;;;;;;;9.57;7.63;;;6.80;99.90;;;;;;5049484;28;20688;-51
2022/06/02 03:48:25;;;;;;;7.63;6.83;;;6.80;99.90;;;;;;5048639;28;20199;-51
2022/06/02 03:51:08;;;;;;;8.13;7.33;;;6.80;99.90;;;;;;5049426;28;20207;-52
2022/06/02 03:53:59;;;;;;;9.13;7.67;;;6.90;99.90;;;;;;5048599;28;20232;-51
2022/06/02 03:56:44;;;;;;;10.43;9.30;;;6.90;99.90;;;;;;5048947;28;20212;-51
2022/06/02 03:59:30;;;;;;;8.80;7.90;;;6.90;99.90;;;;;;5049236;28;20541;-51
2022/06/02 04:02:03;;;;;;;8.73;7.83;;;7.00;99.90;;;;;;5048846;28;20204;-51
2022/06/02 04:04:39;;;;;;;9.10;8.17;;;7.10;99.90;;;;;;5037506;28;20230;-51
2022/06/02 04:07:22;;;;;;;8.63;7.83;;;7.10;99.90;;;;;;5054841;28;20238;-51
2022/06/02 04:10:00;;;;;;;9.03;8.10;;;7.20;99.90;;;;;;5052401;28;20239;-51
2022/06/02 04:15:52;;;;;;;8.07;6.40;;;8.80;99.90;;;;;;5049097;28;20234;-51
2022/06/02 04:18:30;;;;;;;7.73;7.03;;;9.80;99.90;;;;;;5049235;28;20209;-52
2022/06/02 04:21:09;;;;;;;6.93;6.33;;;10.50;99.90;;;;;;5048718;28;20977;-50
2022/06/02 04:24:00;;;;;;;6.80;6.03;;;11.10;99.90;;;;;;5048301;28;20261;-51
2022/06/02 04:26:45;;;;;;;7.97;7.17;;;11.50;99.90;;;;;;5046308;28;20231;-52
2022/06/02 04:29:41;;;;;;;6.40;5.80;;;11.90;99.90;;;;;;5036233;28;20205;-52
2022/06/02 04:32:21;;;;;;;8.07;5.70;;;12.30;99.90;;;;;;5048091;28;20273;-52
2022/06/02 04:34:56;;;;;;;5.80;5.30;;;12.50;99.90;;;;;;5049631;28;20307;-52
2022/06/02 04:37:34;;;;;;;6.17;5.63;;;13.00;99.90;;;;;;5052263;28;20205;-51
2022/06/02 04:40:10;;;;;;;6.03;5.53;;;13.30;99.90;;;;;;5052597;28;20889;-51
2022/06/02 04:42:46;;;;;;;5.43;4.93;;;13.80;99.90;;;;;;5051959;28;20298;-52
2022/06/02 04:45:22;;;;;;;6.03;5.45;;;14.10;99.90;;;;;;5052748;28;20205;-51
2022/06/02 04:47:56;;;;;;;5.80;5.30;;;14.50;99.90;;;;;;5052735;28;20229;-51
2022/06/02 04:50:34;;;;;;;5.53;4.95;;;14.70;99.90;;;;;;5052256;28;20200;-51
2022/06/02 04:53:12;;;;;;;5.40;4.90;;;14.70;99.90;;;;;;5051692;28;20225;-52
2022/06/02 04:55:52;;;;;;;5.57;5.07;;;15.20;99.90;;;;;;5052222;28;20209;-51
2022/06/02 04:58:27;;;;;;;5.53;5.00;;;15.10;99.90;;;;;;5052403;28;20217;-51
2022/06/02 05:01:04;;;;;;;5.60;5.10;;;14.80;99.90;;;;;;5051821;28;20248;-51
2022/06/02 05:03:44;;;;;;;5.53;5.03;;;15.10;99.90;;;;;;5052123;28;20221;-52
2022/06/02 05:06:19;;;;;;;5.72;5.22;;;15.50;99.90;;;;;;5050712;28;20201;-52
2022/06/02 05:09:00;;;;;;;5.70;5.20;;;16.10;99.90;;;;;;5051453;28;20204;-51
2022/06/02 05:11:42;;;;;;;5.70;5.10;;;16.60;99.90;;;;;;5051973;28;20202;-51
2022/06/02 05:14:19;;;;;;;5.28;4.78;;;16.70;99.90;;;;;;5051867;28;20221;-51
2022/06/02 05:17:02;;;;;;;5.35;4.85;;;17.20;99.90;;;;;;5038878;28;20236;-51
2022/06/02 05:19:42;;;;;;;5.05;4.65;;;17.60;99.90;;;;;;5046842;28;20212;-51
2022/06/02 05:22:35;;;;;;;5.20;4.80;;;17.90;99.90;;;;;;5050156;28;20662;-52
2022/06/02 05:25:29;;;;;;;5.45;4.95;;;17.90;99.90;;;;;;5046596;28;20277;-52
2022/06/02 05:28:45;;;;;;;5.47;4.97;;;17.90;99.90;;;;;;5039932;28;20256;-52
2022/06/02 05:31:45;;;;;;;5.72;5.18;;;17.90;99.90;;;;;;5017119;28;20659;-51
2022/06/02 05:34:44;;;;;;;5.53;5.03;;;18.20;99.90;;;;;;5051186;28;20791;-52
2022/06/02 05:37:36;;;;;;;5.30;4.80;;;18.80;99.90;;;;;;5048590;28;20693;-52
2022/06/02 05:40:15;;;;;;;5.38;4.97;;;19.10;99.90;;;;;;5050991;28;20736;-52
2022/06/02 05:42:54;;;;;;;5.68;5.18;;;19.30;99.90;;;;;;5050658;28;20241;-52
2022/06/02 05:45:51;;;;;;;5.53;5.03;;;19.50;99.90;;;;;;5048116;28;20240;-52
2022/06/02 05:48:41;;;;;;;8.10;6.30;;;19.80;99.90;;;;;;5051167;28;20202;-52
2022/06/02 05:51:21;;;;;;;8.00;7.30;;;20.10;99.90;;;;;;5050551;28;20229;-52
2022/06/02 05:54:02;;;;;;;7.80;7.10;;;20.30;99.90;;;;;;5043398;28;20419;-52
2022/06/02 05:56:40;;;;;;;7.53;6.93;;;20.50;99.90;;;;;;5050992;28;20255;-51
2022/06/02 05:59:33;;;;;;;8.68;7.80;;;21.00;99.90;;;;;;5051053;28;20259;-52
2022/06/02 06:02:40;;;;;;;7.95;7.15;;;20.80;99.90;;;;;;5049945;28;20260;-52
2022/06/02 06:05:17;;;;;;;8.32;7.45;;;20.60;99.90;;;;;;5050931;28;21081;-51
2022/06/02 06:08:10;;;;;;;9.32;8.52;;;20.70;99.90;;;;;;5050460;28;20248;-51
2022/06/02 06:10:49;;;;;;;9.35;8.43;;;20.90;99.90;;;;;;5050607;28;20686;-52
2022/06/02 06:13:41;;;;;;;9.50;8.60;;;20.90;99.90;;;;;;5051966;28;20226;-52
2022/06/02 06:16:18;;;;;;;9.10;7.97;;;21.20;99.90;;;;;;5019117;28;20588;-52
2022/06/02 06:18:59;;;;;;;8.13;7.40;;;21.00;99.90;;;;;;5037994;28;20212;-52
2022/06/02 06:21:47;;;;;;;8.00;6.70;;;21.30;99.90;;;;;;5049349;28;20229;-51
2022/06/02 06:24:31;;;;;;;9.10;8.23;;;21.60;99.90;;;;;;5052632;28;20283;-52
2022/06/02 06:27:08;;;;;;;9.05;8.18;;;21.70;99.90;;;;;;5048060;28;20690;-52
2022/06/02 06:29:45;;;;;;;9.23;8.43;;;21.80;99.90;;;;;;5051393;28;20335;-52
2022/06/02 06:32:22;;;;;;;8.73;7.93;;;21.90;99.90;;;;;;5050725;28;20240;-51
2022/06/02 06:34:59;;;;;;;8.40;7.63;;;22.20;99.90;;;;;;5051716;28;20306;-52
2022/06/02 06:38:00;;;;;;;8.32;7.53;;;22.30;99.90;;;;;;5046700;28;20210;-52
2022/06/02 06:40:44;;;;;;;9.18;7.22;;;22.30;99.90;;;;;;5038580;28;20278;-52
2022/06/02 06:43:25;;;;;;;7.15;6.45;;;22.40;99.90;;;;;;5052387;28;20295;-52
2022/06/02 06:46:01;;;;;;;7.20;6.50;;;22.30;99.90;;;;;;5051290;28;20201;-52
2022/06/02 06:48:36;;;;;;;6.35;5.75;;;22.50;99.90;;;;;;5051670;28;20211;-52
2022/06/02 06:51:16;;;;;;;6.90;6.25;;;22.60;99.90;;;;;;5051539;28;20236;-52
2022/06/02 06:53:54;;;;;;;6.07;5.57;;;22.60;99.90;;;;;;5050358;28;20238;-51
2022/06/02 06:56:33;;;;;;;5.88;5.30;;;23.00;99.90;;;;;;5041570;28;20212;-52
2022/06/02 06:59:19;;;;;;;5.43;4.93;;;23.10;99.90;;;;;;5046332;28;20229;-52
2022/06/02 07:01:55;;;;;;;8.50;5.70;;;23.10;98.50;;;;;;5049896;28;20213;-51
2022/06/02 07:04:35;;;;;;;5.97;5.35;;;23.30;99.90;;;;;;5042473;28;20229;-51
2022/06/02 07:07:11;;;;;;;6.32;5.75;;;23.40;99.80;;;;;;5030857;28;20260;-52
2022/06/02 07:09:48;;;;;;;6.97;5.80;;;23.80;99.10;;;;;;5030993;28;20635;-52
2022/06/02 07:15:17;;;;;;;6.20;5.60;;;23.70;99.10;;;;;;5031043;28;20235;-52
2022/06/02 07:17:53;;;;;;;5.38;4.88;;;23.70;98.30;;;;;;5030485;28;20233;-51
2022/06/02 07:20:42;;;;;;;5.80;5.30;;;23.60;99.10;;;;;;5030068;28;20257;-51
2022/06/02 07:23:17;;;;;;;5.68;5.18;;;23.70;98.70;;;;;;5038103;28;20262;-52
2022/06/02 07:25:54;;;;;;;5.50;4.80;;;23.90;99.30;;;;;;5027553;28;20921;-52
2022/06/02 07:28:32;;;;;;;4.70;4.30;;;23.90;98.70;;;;;;5047847;28;20744;-52
2022/06/02 07:31:15;;;;;;;4.90;4.43;;;23.90;99.00;;;;;;5049628;28;20205;-52
2022/06/02 07:33:53;;;;;;;4.72;4.32;;;24.00;98.50;;;;;;5046571;28;20232;-52
2022/06/02 07:36:51;;;;;;;5.47;4.90;;;24.00;97.50;;;;;;5039414;28;20296;-51
2022/06/02 07:40:04;;;;;;;4.75;4.38;;;23.90;96.50;;;;;;5049061;28;20667;-52
2022/06/02 07:42:52;;;;;;;4.90;4.50;;;24.10;96.70;;;;;;5051841;28;20287;-52
2022/06/02 07:45:37;;;;;;;4.10;3.70;;;23.90;96.70;;;;;;5053986;28;20218;-51
2022/06/02 07:48:47;;;;;;;4.70;4.30;;;23.90;96.40;;;;;;5052807;28;20233;-52
2022/06/02 07:51:23;;;;;;;4.50;4.10;;;23.90;96.00;;;;;;5048869;28;20240;-51
2022/06/02 07:54:09;;;;;;;4.28;3.88;;;23.80;97.20;;;;;;5048339;28;20733;-52
2022/06/02 07:56:49;;;;;;;4.55;4.25;;;23.90;97.30;;;;;;5048691;28;20205;-52
2022/06/02 07:59:30;;;;;;;4.72;4.25;;;24.30;97.30;;;;;;5047798;28;20210;-52
2022/06/02 08:02:25;;;;;;;4.47;3.80;;;24.50;96.00;;;;;;5048114;28;20232;-52
2022/06/02 08:05:04;;;;;;;5.35;4.38;;;24.60;94.90;;;;;;5048928;28;20659;-52
2022/06/02 08:07:41;;;;;;;4.20;3.42;;;24.10;94.80;;;;;;5048496;28;20225;-52
2022/06/02 08:10:20;;;;;;;4.00;3.60;;;23.70;96.90;;;;;;5052843;28;20207;-52
2022/06/02 08:12:53;;;;;;;3.72;3.35;;;23.60;98.60;;;;;;5052687;28;20235;-52
2022/06/02 08:15:33;;;;;;;3.33;3.00;;;23.30;97.70;;;;;;5053017;28;20213;-52
2022/06/02 08:18:14;;;;;;;2.80;2.55;;;22.80;94.60;;;;;;5052908;28;20251;-52
2022/06/02 08:20:51;;;;;;;3.17;2.88;;;22.90;95.20;;;;;;5052603;28;20686;-52
2022/06/02 08:23:42;;;;;;;3.60;3.22;;;22.60;95.00;;;;;;5052061;28;20272;-52
2022/06/02 08:26:15;;;;;;;3.40;2.60;;;22.60;96.90;;;;;;5052551;28;20241;-51
2022/06/02 08:29:08;;;;;;;3.10;2.80;;;22.80;94.50;;;;;;5049972;28;20201;-52
2022/06/02 08:31:59;;;;;;;2.92;2.72;;;22.70;93.40;;;;;;5052614;28;20209;-52
2022/06/02 08:34:37;;;;;;;3.15;2.95;;;22.40;95.10;;;;;;5040727;28;20971;-52
2022/06/02 08:37:12;;;;;;;3.95;2.65;;;22.40;94.10;;;;;;5051184;28;20236;-51
2022/06/02 08:40:02;;;;;;;3.17;2.88;;;22.60;94.40;;;;;;5053217;28;20217;-51
2022/06/02 08:43:11;;;;;;;2.72;2.50;;;22.70;95.30;;;;;;5051991;28;20964;-52
2022/06/02 08:46:11;;;;;;;3.35;2.47;;;22.80;96.00;;;;;;5027070;28;20217;-52
2022/06/02 08:49:01;;;;;;;2.65;2.45;;;22.80;95.70;;;;;;5052932;28;20237;-51
2022/06/02 08:52:05;;;;;;;2.58;2.38;;;22.50;94.50;;;;;;5052935;28;20291;-51
2022/06/02 08:55:18;;;;;;;2.80;2.50;;;22.60;94.80;;;;;;5049398;28;20269;-52
2022/06/02 08:58:43;;;;;;;2.97;2.67;;;22.60;95.90;;;;;;5051774;28;20228;-52
2022/06/02 09:01:26;;;;;;;3.08;2.47;;;22.60;94.60;;;;;;5052299;28;20267;-51
2022/06/02 09:04:34;;;;;;;2.50;2.20;;;22.70;95.60;;;;;;5040245;28;20234;-52
2022/06/02 09:07:28;;;;;;;2.40;2.20;;;22.80;96.00;;;;;;5016680;28;20625;-52
2022/06/02 09:10:43;;;;;;;2.40;2.10;;;22.70;94.40;;;;;;5046547;28;20212;-51
2022/06/02 09:13:46;;;;;;;2.17;2.05;;;22.50;93.50;;;;;;5038943;28;20231;-51
2022/06/02 09:16:21;;;;;;;1.88;1.70;;;22.50;93.50;;;;;;5026071;28;20247;-51
2022/06/02 09:19:18;;;;;;;2.38;2.03;;;22.30;96.20;;;;;;5051448;28;20696;-52
2022/06/02 09:22:10;;;;;;;2.10;1.60;;;22.00;95.60;;;;;;5037448;28;20206;-52
2022/06/02 09:24:44;;;;;;;3.60;2.03;;;21.90;95.40;;;;;;5042838;28;20756;-52
2022/06/02 09:27:58;;;;;;;1.95;1.77;;;21.40;94.50;;;;;;5039394;28;20205;-52
2022/06/02 09:30:42;;;;;;;1.88;1.73;;;21.60;94.30;;;;;;5048524;28;20558;-52
2022/06/02 09:33:35;;;;;;;1.70;1.60;;;21.60;94.70;;;;;;5050369;28;20746;-51
2022/06/02 09:36:26;;;;;;;2.55;1.75;;;21.90;94.70;;;;;;5050973;28;20259;-52
2022/06/02 09:39:11;;;;;;;1.80;1.70;;;21.50;92.90;;;;;;5050754;28;20744;-51
2022/06/02 09:42:11;;;;;;;2.92;1.92;;;21.20;93.60;;;;;;5051423;28;20260;-51
2022/06/02 09:44:53;;;;;;;1.73;1.63;;;21.20;93.60;;;;;;5038960;28;20236;-50
2022/06/02 09:47:44;;;;;;;2.00;1.85;;;21.60;93.70;;;;;;5042671;28;20235;-52
2022/06/02 09:50:46;;;;;;;1.92;1.77;;;21.80;93.30;;;;;;5042399;28;20639;-52
2022/06/02 09:53:48;;;;;;;1.85;1.73;;;22.10;93.90;;;;;;5039332;28;20787;-51
2022/06/02 09:57:01;;;;;;;2.30;1.90;;;22.10;93.90;;;;;;5050363;28;20765;-51
2022/06/02 09:59:37;;;;;;;1.88;1.77;;;22.00;93.80;;;;;;5001664;28;20217;-51
2022/06/02 10:02:22;;;;;;;1.70;1.60;;;22.40;93.70;;;;;;5047722;28;20635;-52
2022/06/02 10:05:07;;;;;;;1.67;1.58;;;22.50;93.60;;;;;;5050865;28;20241;-55
2022/06/02 10:08:02;;;;;;;1.70;1.60;;;22.60;94.40;;;;;;5043595;28;20205;-51
2022/06/02 10:10:47;;;;;;;1.67;1.40;;;23.00;95.90;;;;;;5045033;28;20241;-52
2022/06/02 10:14:00;;;;;;;1.75;1.65;;;22.90;94.10;;;;;;5049260;28;20221;-51
2022/06/02 10:17:10;;;;;;;1.83;1.73;;;23.10;93.80;;;;;;5021566;28;20996;-52
2022/06/02 10:20:19;;;;;;;1.38;1.27;;;23.10;91.10;;;;;;5045492;28;20259;-51
2022/06/02 10:23:02;;;;;;;1.63;1.52;;;23.00;92.30;;;;;;5043001;28;20294;-52
2022/06/02 10:26:07;;;;;;;1.60;1.50;;;22.80;93.10;;;;;;5038781;28;20213;-51
2022/06/02 10:29:21;;;;;;;2.08;1.80;;;22.90;92.80;;;;;;5003752;28;20242;-52
2022/06/02 10:32:20;;;;;;;1.50;1.40;;;22.70;91.80;;;;;;4986169;28;20223;-51
2022/06/02 10:38:23;;;;;;;1.92;1.58;;;22.20;91.60;;;;;;5085968;28;20561;-52
2022/06/02 10:41:08;;;;;;;2.03;1.60;;;22.00;92.90;;;;;;5061814;28;20246;-51
2022/06/02 10:44:11;;;;;;;1.50;1.40;;;21.80;92.90;;;;;;5060420;28;20488;-51
2022/06/02 10:47:12;;;;;;;1.60;1.50;;;21.80;92.20;;;;;;5076681;28;20200;-50
2022/06/02 10:49:53;;;;;;;3.90;1.50;;;21.40;92.90;;;;;;5064858;28;20264;-52
2022/06/02 10:53:16;;;;;;;2.58;1.30;;;21.50;93.20;;;;;;5085115;28;20216;-51
2022/06/02 10:56:23;;;;;;;1.67;1.30;;;21.40;92.80;;;;;;5082673;28;20232;-51
2022/06/02 10:59:25;;;;;;;1.30;1.20;;;21.40;91.80;;;;;;5015507;28;20209;-51
2022/06/02 11:02:32;;;;;;;1.83;1.20;;;21.40;91.70;;;;;;5065212;28;20235;-52
2022/06/02 11:05:33;;;;;;;1.92;1.67;;;21.70;91.20;;;;;;5059294;28;20247;-51
2022/06/02 11:08:52;;;;;;;1.52;1.33;;;21.60;91.80;;;;;;5059066;28;20288;-52
2022/06/02 11:11:42;;;;;;;2.97;1.42;;;21.40;92.40;;;;;;5086092;28;20251;-51
2022/06/02 11:14:40;;;;;;;1.55;1.45;;;21.50;93.00;;;;;;5084701;28;20687;-51
2022/06/02 11:17:39;;;;;;;1.55;1.45;;;21.80;93.90;;;;;;5085606;28;20224;-51
2022/06/02 11:20:35;;;;;;;1.90;1.40;;;22.20;93.40;;;;;;5071513;28;20201;-51
2022/06/02 11:23:49;;;;;;;1.55;1.40;;;22.10;92.30;;;;;;5074275;28;20751;-51
2022/06/02 11:26:52;;;;;;;1.90;1.40;;;22.10;92.50;;;;;;5085383;28;20278;-51
2022/06/02 11:30:01;;;;;;;1.48;1.38;;;22.00;91.70;;;;;;5085229;28;20320;-50
2022/06/02 11:33:05;;;;;;;1.40;1.35;;;22.10;93.30;;;;;;5057465;28;20276;-52
2022/06/02 11:36:11;;;;;;;1.10;1.10;;;22.30;96.00;;;;;;5064239;28;20697;-52
2022/06/02 11:39:09;;;;;;;1.48;1.27;;;22.40;92.70;;;;;;5084750;28;20204;-52
2022/06/02 11:41:47;;;;;;;1.15;1.08;;;22.60;93.10;;;;;;5074807;28;20204;-51
2022/06/02 11:44:22;;;;;;;1.70;1.38;;;22.40;92.60;;;;;;5083871;28;20220;-52
2022/06/02 11:47:20;;;;;;;1.23;1.10;;;22.40;92.70;;;;;;5084177;28;20258;-52
2022/06/02 11:50:28;;;;;;;0.98;0.98;;;22.30;91.60;;;;;;5049332;28;20902;-52
2022/06/02 11:53:29;;;;;;;1.52;1.15;;;21.70;91.30;;;;;;5069705;28;20282;-52
2022/06/02 11:56:05;;;;;;;1.13;1.13;;;21.60;92.10;;;;;;5072270;28;20209;-52
2022/06/02 11:59:01;;;;;;;2.95;1.42;;;21.30;92.70;;;;;;5071632;28;20204;-52
2022/06/02 12:01:55;;;;;;;0.98;0.98;;;21.20;93.30;;;;;;5045311;28;20201;-51
2022/06/02 12:05:01;;;;;;;1.48;1.35;;;21.20;93.00;;;;;;5063045;28;20257;-52
2022/06/02 12:08:06;;;;;;;1.33;1.23;;;21.20;93.00;;;;;;5071763;28;20235;-52
2022/06/02 12:11:08;;;;;;;2.92;1.42;;;21.40;92.70;;;;;;5069497;28;20232;-52
2022/06/02 12:14:00;;;;;;;1.38;1.27;;;21.70;95.00;;;;;;5047956;28;20268;-51
2022/06/02 12:16:49;;;;;;;2.00;1.40;;;21.70;92.70;;;;;;5071059;28;20201;-51
2022/06/02 12:19:49;;;;;;;1.40;1.30;;;21.70;94.80;;;;;;5071520;28;20209;-51
2022/06/02 12:22:45;;;;;;;1.92;1.40;;;21.80;93.60;;;;;;5070469;28;20248;-51
2022/06/02 12:25:49;;;;;;;2.45;1.50;;;21.80;91.10;;;;;;5043998;28;20208;-51
2022/06/02 12:28:44;;;;;;;1.40;1.30;;;22.00;92.00;;;;;;5070694;28;20269;-51
2022/06/02 12:32:04;;;;;;;1.95;1.30;;;21.90;91.40;;;;;;5049785;28;20209;-52
2022/06/02 12:35:09;;;;;;;1.52;1.13;;;22.00;92.20;;;;;;5071004;28;20282;-51
2022/06/02 12:38:13;;;;;;;1.42;1.20;;;21.90;92.50;;;;;;5067772;28;20237;-51
2022/06/02 12:41:03;;;;;;;1.52;1.40;;;22.20;93.10;;;;;;5070813;28;20200;-52
2022/06/02 12:44:07;;;;;;;2.25;1.40;;;22.40;92.90;;;;;;5070462;28;20279;-52
2022/06/02 12:47:07;;;;;;;1.10;1.08;;;22.30;93.30;;;;;;5070865;28;20205;-51
2022/06/02 12:50:04;;;;;;;1.77;1.50;;;22.20;92.70;;;;;;5040819;28;20244;-51
2022/06/02 12:53:13;;;;;;;1.40;1.30;;;22.30;92.30;;;;;;5047055;28;20201;-52
2022/06/02 12:56:17;;;;;;;4.03;1.60;;;22.20;91.20;;;;;;5007986;28;20206;-51
2022/06/02 12:59:15;;;;;;;1.30;1.10;;;22.30;92.80;;;;;;5007595;28;20280;-51
2022/06/02 13:01:51;;;;;;;1.30;1.20;;;22.20;90.50;;;;;;5067803;28;20216;-51
2022/06/02 13:05:02;;;;;;;1.35;1.25;;;22.10;91.80;;;;;;5050198;28;20243;-51
2022/06/02 13:07:54;;;;;;;2.13;1.50;;;22.00;91.20;;;;;;5046663;28;20256;-51
2022/06/02 13:10:37;;;;;;;1.45;1.35;;;21.90;92.20;;;;;;5070703;28;20306;-51
2022/06/02 13:13:48;;;;;;;3.28;1.05;;;21.80;92.00;;;;;;5069308;28;20224;-51
2022/06/02 13:16:49;;;;;;;1.60;1.20;;;21.70;91.00;;;;;;5055088;28;20795;-51
2022/06/02 13:19:52;;;;;;;1.50;1.40;;;21.80;92.30;;;;;;5063330;28;20223;-51
2022/06/02 13:22:54;;;;;;;1.70;1.60;;;21.90;91.60;;;;;;5050618;28;20224;-51
2022/06/02 13:25:54;;;;;;;1.30;1.20;;;21.80;92.60;;;;;;5045788;28;20224;-52
2022/06/02 13:29:04;;;;;;;1.35;1.23;;;22.00;92.60;;;;;;5064255;28;20196;-51
2022/06/02 13:32:12;;;;;;;1.50;1.40;;;22.10;94.40;;;;;;5069443;28;20244;-52
2022/06/02 13:35:19;;;;;;;1.70;1.30;;;22.10;92.00;;;;;;5049316;28;20260;-51
2022/06/02 13:38:32;;;;;;;1.70;1.27;;;21.80;91.80;;;;;;5068104;28;20695;-52
2022/06/02 13:41:33;;;;;;;1.40;1.30;;;21.60;92.00;;;;;;5055843;28;20244;-51
2022/06/02 13:44:31;;;;;;;2.17;1.40;;;21.70;92.10;;;;;;5068756;28;20708;-50
2022/06/02 13:47:25;;;;;;;1.13;1.10;;;21.80;91.90;;;;;;5067189;28;20278;-51
2022/06/02 13:50:44;;;;;;;1.13;1.10;;;21.80;93.40;;;;;;5048004;28;20251;-51
2022/06/02 13:57:30;;;;;;;1.50;1.40;;;21.80;94.40;;;;;;5006822;28;20262;-51
2022/06/02 14:00:02;;;;;;;1.27;1.17;;;21.80;92.50;;;;;;5069384;28;20273;-51
2022/06/02 14:02:58;;;;;;;1.38;1.27;;;21.80;94.50;;;;;;5056255;28;20210;-51
2022/06/02 14:05:52;;;;;;;1.65;1.15;;;21.50;93.40;;;;;;5048665;28;20210;-52
2022/06/02 14:08:46;;;;;;;1.30;1.30;;;21.40;93.80;;;;;;5035894;28;20225;-51
2022/06/02 14:11:29;;;;;;;1.88;1.10;;;21.60;93.20;;;;;;5048802;28;21020;-52
2022/06/02 14:14:21;;;;;;;1.60;1.48;;;21.80;93.50;;;;;;5048832;28;20244;-51
2022/06/02 14:17:00;;;;;;;1.63;1.05;;;21.90;92.10;;;;;;5049127;28;20628;-51
2022/06/02 14:19:46;;;;;;;1.30;1.20;;;22.00;92.60;;;;;;5048442;28;20222;-51
2022/06/02 14:22:24;;;;;;;1.33;1.23;;;22.00;92.40;;;;;;5048443;28;20735;-51
2022/06/02 14:25:03;;;;;;;1.33;1.20;;;22.10;92.80;;;;;;5049220;28;20260;-52
2022/06/02 14:27:38;;;;;;;1.80;1.30;;;22.10;92.70;;;;;;5047969;28;20282;-51
2022/06/02 14:30:13;;;;;;;1.52;1.27;;;21.90;91.60;;;;;;5068815;28;20254;-52
2022/06/02 14:32:52;;;;;;;1.48;1.38;;;21.60;91.90;;;;;;5049477;28;20219;-51
2022/06/02 14:35:44;;;;;;;1.55;1.30;;;21.50;92.30;;;;;;5058683;28;20200;-51
2022/06/02 14:38:25;;;;;;;1.55;1.15;;;21.50;92.20;;;;;;5079199;28;20267;-51
2022/06/02 14:41:00;;;;;;;2.60;1.30;;;21.60;92.80;;;;;;5083674;28;20213;-51
2022/06/02 14:43:56;;;;;;;1.23;1.10;;;21.70;92.10;;;;;;5058365;28;20225;-51
2022/06/02 14:46:47;;;;;;;1.35;1.10;;;21.70;92.70;;;;;;5060294;28;20205;-51
2022/06/02 14:49:35;;;;;;;1.30;1.20;;;21.40;91.20;;;;;;5054210;28;20308;-51
2022/06/02 14:52:17;;;;;;;1.40;1.30;;;21.50;91.60;;;;;;5054852;28;20597;-51